createdAt,value
2022-09-06T00:01:14.735Z,70.22
2022-09-06T00:03:42.929Z,70.25
2022-09-06T00:06:19.406Z,70.55
2022-09-06T00:08:48.895Z,70.62
2022-09-06T00:11:18.157Z,70.87
2022-09-06T00:13:46.859Z,70.47
2022-09-06T00:16:21.440Z,70.72
2022-09-06T00:18:48.949Z,70.86
2022-09-06T00:21:24.243Z,70.82
2022-09-06T00:23:53.158Z,70.94
2022-09-06T00:26:22.956Z,70.99
2022-09-06T00:28:50.556Z,71.46
2022-09-06T00:31:23.050Z,70.98
2022-09-06T00:33:51.011Z,71.19
2022-09-06T00:36:19.376Z,71.52
2022-09-06T00:38:47.432Z,71.36
2022-09-06T00:41:16.613Z,71.07
2022-09-06T00:43:44.601Z,70.99
2022-09-06T00:46:37.998Z,70.83
2022-09-06T00:49:24.481Z,70.77
2022-09-06T00:51:58.525Z,70.96
2022-09-06T00:54:26.970Z,70.91
2022-09-06T00:56:56.400Z,71.09
2022-09-06T00:59:27.123Z,71.20
2022-09-06T01:01:55.854Z,71.27
2022-09-06T01:04:24.718Z,71.25
2022-09-06T01:07:11.037Z,71.08
2022-09-06T01:10:42.995Z,71.26
2022-09-06T01:13:36.716Z,71.51
2022-09-06T01:16:45.576Z,71.38
2022-09-06T01:19:52.598Z,71.04
2022-09-06T01:22:19.775Z,71.01
2022-09-06T01:25:01.017Z,71.02
2022-09-06T01:28:02.832Z,71.07
2022-09-06T01:30:34.760Z,71.25
2022-09-06T01:33:22.920Z,71.19
2022-09-06T01:35:59.902Z,71.59
2022-09-06T01:38:28.211Z,71.27
2022-09-06T01:40:56.153Z,71.44
2022-09-06T01:43:41.865Z,71.71
2022-09-06T01:46:36.126Z,71.50
2022-09-06T01:49:33.274Z,71.39
2022-09-06T01:52:35.629Z,71.40
2022-09-06T01:55:16.651Z,71.44
2022-09-06T01:58:03.963Z,71.52
2022-09-06T02:00:39.589Z,71.61
2022-09-06T02:03:14.248Z,71.11
2022-09-06T02:05:56.314Z,71.48
2022-09-06T02:08:36.417Z,71.63
2022-09-06T02:11:08.247Z,71.49
2022-09-06T02:13:59.028Z,71.82
2022-09-06T02:16:30.262Z,71.65
2022-09-06T02:19:12.306Z,71.89
2022-09-06T02:21:45.585Z,71.43
2022-09-06T02:24:21.201Z,71.75
2022-09-06T02:26:49.225Z,71.16
2022-09-06T02:29:18.288Z,71.09
2022-09-06T02:31:54.801Z,70.91
2022-09-06T02:34:23.079Z,70.75
2022-09-06T02:36:51.208Z,70.82
2022-09-06T02:39:19.295Z,71.08
2022-09-06T02:41:48.512Z,71.01
2022-09-06T02:44:16.496Z,71.13
2022-09-06T02:46:43.823Z,71.28
2022-09-06T02:49:11.513Z,70.98
2022-09-06T02:51:40.055Z,71.12
2022-09-06T02:54:08.269Z,70.91
2022-09-06T02:56:36.955Z,70.68
2022-09-06T02:59:05.785Z,70.97
2022-09-06T03:01:34.214Z,70.74
2022-09-06T03:04:02.462Z,71.00
2022-09-06T03:06:30.667Z,71.14
2022-09-06T03:09:00.231Z,71.01
2022-09-06T03:11:28.891Z,71.20
2022-09-06T03:13:56.523Z,71.31
2022-09-06T03:16:23.979Z,71.33
2022-09-06T03:18:51.573Z,71.13
2022-09-06T03:21:18.927Z,71.34
2022-09-06T03:23:46.309Z,71.35
2022-09-06T03:26:14.097Z,71.36
2022-09-06T03:28:43.503Z,71.29
2022-09-06T03:31:11.602Z,71.45
2022-09-06T03:33:39.381Z,71.08
2022-09-06T03:36:07.418Z,71.19
2022-09-06T03:38:40.880Z,71.11
2022-09-06T03:41:08.605Z,71.26
2022-09-06T03:43:36.267Z,71.07
2022-09-06T03:46:03.961Z,70.92
2022-09-06T03:48:31.570Z,71.02
2022-09-06T03:51:00.205Z,71.27
2022-09-06T03:53:29.561Z,71.25
2022-09-06T03:55:59.931Z,71.31
2022-09-06T03:58:34.150Z,71.01
2022-09-06T04:01:07.191Z,71.12
2022-09-06T04:03:35.578Z,71.18
2022-09-06T04:06:04.351Z,70.87
2022-09-06T04:08:32.488Z,70.93
2022-09-06T04:11:00.998Z,70.81
2022-09-06T04:13:32.346Z,70.73
2022-09-06T04:16:00.558Z,71.01
2022-09-06T04:18:28.397Z,70.67
2022-09-06T04:20:57.461Z,70.99
2022-09-06T04:27:08.237Z,71.33
2022-09-06T04:29:35.617Z,70.99
2022-09-06T04:32:03.514Z,71.19
2022-09-06T04:34:31.096Z,71.30
2022-09-06T04:37:00.017Z,71.24
2022-09-06T04:39:27.508Z,71.46
2022-09-06T04:41:55.056Z,71.86
2022-09-06T04:44:22.415Z,71.82
2022-09-06T04:46:50.037Z,72.30
2022-09-06T04:49:17.729Z,72.00
2022-09-06T04:51:44.987Z,72.45
2022-09-06T04:54:13.101Z,72.92
2022-09-06T04:56:40.750Z,73.18
2022-09-06T04:59:09.711Z,72.64
2022-09-06T05:04:26.542Z,73.14
2022-09-06T05:07:06.532Z,73.04
2022-09-06T05:09:34.749Z,72.99
2022-09-06T05:12:02.603Z,72.58
2022-09-06T05:14:30.642Z,73.12
2022-09-06T05:16:58.014Z,73.26
2022-09-06T05:19:25.459Z,72.83
2022-09-06T05:21:53.377Z,73.27
2022-09-06T05:24:20.967Z,72.60
2022-09-06T05:26:48.811Z,72.10
2022-09-06T05:29:16.241Z,72.85
2022-09-06T05:31:43.739Z,72.47
2022-09-06T05:34:13.525Z,71.95
2022-09-06T05:36:42.054Z,72.39
2022-09-06T05:39:09.634Z,71.98
2022-09-06T05:41:37.001Z,73.07
2022-09-06T05:44:05.053Z,72.42
2022-09-06T05:46:33.047Z,72.60
2022-09-06T05:49:04.852Z,72.37
2022-09-06T05:51:32.999Z,71.23
2022-09-06T05:54:00.633Z,72.14
2022-09-06T05:56:28.639Z,71.92
2022-09-06T05:58:56.054Z,71.41
2022-09-06T06:01:26.963Z,70.89
2022-09-06T06:04:00.446Z,70.91
2022-09-06T06:06:31.536Z,70.63
2022-09-06T06:09:07.563Z,71.03
2022-09-06T06:11:35.104Z,70.48
2022-09-06T06:14:06.006Z,71.12
2022-09-06T06:16:33.897Z,70.82
2022-09-06T06:19:01.257Z,70.63
2022-09-06T06:21:31.901Z,70.22
2022-09-06T06:24:04.976Z,70.89
2022-09-06T06:26:35.908Z,71.41
2022-09-06T06:29:04.248Z,71.21
2022-09-06T06:31:34.343Z,70.87
2022-09-06T06:34:04.929Z,70.10
2022-09-06T06:36:35.280Z,70.36
2022-09-06T06:39:06.510Z,69.99
2022-09-06T06:41:34.317Z,70.00
2022-09-06T06:44:04.643Z,67.76
2022-09-06T06:46:35.925Z,67.81
2022-09-06T06:49:04.310Z,66.25
2022-09-06T06:51:43.825Z,67.78
2022-09-06T06:54:11.510Z,67.67
2022-09-06T07:15:42.928Z,66.48
2022-09-06T07:18:12.596Z,65.62
2022-09-06T07:26:31.196Z,65.02
2022-09-06T07:29:02.859Z,64.39
2022-09-06T07:34:26.793Z,63.68
2022-09-06T07:36:56.463Z,63.64
2022-09-06T07:39:24.548Z,63.91
2022-09-06T07:41:52.658Z,64.41
2022-09-06T07:44:23.534Z,65.08
2022-09-06T07:46:53.690Z,64.70
2022-09-06T07:49:26.149Z,65.69
2022-09-06T07:51:57.161Z,65.76
2022-09-06T07:54:32.292Z,66.61
2022-09-06T07:57:00.123Z,65.75
2022-09-06T07:59:30.943Z,66.13
2022-09-06T08:02:01.411Z,66.95
2022-09-06T08:04:29.929Z,66.90
2022-09-06T08:09:51.965Z,66.31
2022-09-06T08:12:23.433Z,65.99
2022-09-06T08:14:53.264Z,66.15
2022-09-06T08:17:22.846Z,64.77
2022-09-06T08:19:50.800Z,65.63
2022-09-06T08:22:20.483Z,65.48
2022-09-06T09:32:10.036Z,66.56
2022-09-06T09:34:40.808Z,64.99
2022-09-06T09:37:46.047Z,64.45
2022-09-06T09:40:26.249Z,64.66
2022-09-06T09:43:10.985Z,64.17
2022-09-06T09:45:39.336Z,63.01
2022-09-06T09:48:30.306Z,63.45
2022-09-06T09:50:58.061Z,63.08
2022-09-06T09:53:31.604Z,64.45
2022-09-06T09:56:03.312Z,65.71
2022-09-06T09:58:38.155Z,65.06
2022-09-06T10:01:29.151Z,63.92
2022-09-06T10:07:15.834Z,62.46
2022-09-06T10:09:58.804Z,65.19
2022-09-06T10:12:47.258Z,61.35
2022-09-06T10:15:41.250Z,62.39
2022-09-06T10:18:39.185Z,63.59
2022-09-06T10:21:11.290Z,63.99
2022-09-06T10:26:59.645Z,62.33
2022-09-06T10:29:56.138Z,61.54
2022-09-06T10:32:50.087Z,61.09
2022-09-06T10:35:35.909Z,62.41
2022-09-06T10:38:13.624Z,61.75
2022-09-06T10:41:24.172Z,60.77
2022-09-06T10:44:15.792Z,60.21
2022-09-06T10:46:46.440Z,61.21
2022-09-06T10:49:20.027Z,61.58
2022-09-06T10:52:01.821Z,61.80
2022-09-06T10:54:34.054Z,59.80
2022-09-06T11:00:13.899Z,57.85
2022-09-06T11:06:15.695Z,57.78
2022-09-06T11:08:58.331Z,58.03
2022-09-06T11:12:01.639Z,58.05
2022-09-06T11:14:29.937Z,58.32
2022-09-06T11:17:44.320Z,57.96
2022-09-06T11:20:34.946Z,58.31
2022-09-06T11:23:27.864Z,56.53
2022-09-06T11:26:37.680Z,57.36
2022-09-06T11:29:19.221Z,58.37
2022-09-06T11:34:56.379Z,58.31
2022-09-06T11:37:43.310Z,58.52
2022-09-06T11:42:59.626Z,57.54
2022-09-06T11:46:03.688Z,56.39
2022-09-06T11:48:53.658Z,56.75
2022-09-06T11:51:46.952Z,56.83
2022-09-06T11:54:25.000Z,57.74
2022-09-06T11:57:22.089Z,57.49
2022-09-06T12:00:09.282Z,57.85
2022-09-06T12:02:41.518Z,58.56
2022-09-06T12:05:27.089Z,57.57
2022-09-06T12:08:29.345Z,57.95
2022-09-06T12:11:09.697Z,58.83
2022-09-06T12:13:43.252Z,59.60
2022-09-06T12:16:16.302Z,59.93
2022-09-06T12:18:49.362Z,59.74
2022-09-06T12:21:41.564Z,60.08
2022-09-06T12:24:36.757Z,59.37
2022-09-06T12:27:22.937Z,59.19
2022-09-06T12:29:51.746Z,59.28
2022-09-06T12:32:36.954Z,59.28
2022-09-06T12:38:29.720Z,60.03
2022-09-06T12:40:59.300Z,59.15
2022-09-06T12:43:27.756Z,59.56
2022-09-06T12:45:55.652Z,59.99
2022-09-06T12:48:36.574Z,60.32
2022-09-06T12:51:07.529Z,60.43
2022-09-06T12:53:35.790Z,60.62
2022-09-06T12:56:09.681Z,60.69
2022-09-06T12:58:38.905Z,60.29
2022-09-06T13:01:29.467Z,60.58
2022-09-06T13:04:18.759Z,60.80
2022-09-06T13:06:48.809Z,60.90
2022-09-06T13:09:20.881Z,61.44
2022-09-06T13:11:52.686Z,61.47
2022-09-06T13:14:26.752Z,62.58
2022-09-06T13:17:00.905Z,62.31
2022-09-06T13:23:13.183Z,62.32
2022-09-06T13:25:50.007Z,62.79
2022-09-06T13:28:34.079Z,62.60
2022-09-06T13:31:20.121Z,62.58
2022-09-06T13:33:57.654Z,62.78
2022-09-06T13:36:30.847Z,62.79
2022-09-06T13:39:00.064Z,63.16
2022-09-06T13:41:27.548Z,63.62
2022-09-06T13:44:15.680Z,62.98
2022-09-06T13:46:43.600Z,63.10
2022-09-06T13:49:11.020Z,63.40
2022-09-06T13:51:39.995Z,63.66
2022-09-06T13:54:10.983Z,63.31
2022-09-06T13:56:39.458Z,63.99
2022-09-06T13:59:08.142Z,64.46
2022-09-06T14:01:35.490Z,63.83
2022-09-06T14:04:03.740Z,63.41
2022-09-06T14:06:36.100Z,63.35
2022-09-06T14:09:08.525Z,63.27
2022-09-06T14:11:37.083Z,64.55
2022-09-06T14:14:05.334Z,63.66
2022-09-06T14:16:34.212Z,64.37
2022-09-06T14:19:01.772Z,63.86
2022-09-06T14:21:29.197Z,64.16
2022-09-06T14:24:03.353Z,64.26
2022-09-06T14:26:32.190Z,64.43
2022-09-06T14:28:59.527Z,64.79
2022-09-06T14:31:29.262Z,63.79
2022-09-06T14:33:57.822Z,63.74
2022-09-06T14:36:29.967Z,64.39
2022-09-06T14:38:59.591Z,65.23
2022-09-06T14:41:27.225Z,65.31
2022-09-06T14:43:57.805Z,63.98
2022-09-06T14:46:27.793Z,64.60
2022-09-06T14:49:07.879Z,64.86
2022-09-06T14:51:37.192Z,65.12
2022-09-06T14:54:10.915Z,66.45
2022-09-06T14:56:41.179Z,66.47
2022-09-06T14:59:09.585Z,64.28
2022-09-06T15:01:38.714Z,63.87
2022-09-06T15:04:09.469Z,63.93
2022-09-06T15:06:40.373Z,64.96
2022-09-06T15:09:08.629Z,64.60
2022-09-06T15:11:40.531Z,64.56
2022-09-06T15:14:20.171Z,64.45
2022-09-06T15:16:54.915Z,64.24
2022-09-06T15:19:28.084Z,64.67
2022-09-06T15:21:57.412Z,64.26
2022-09-06T15:24:25.019Z,64.72
2022-09-06T15:26:52.639Z,64.20
2022-09-06T15:29:20.613Z,64.52
2022-09-06T15:31:52.584Z,64.42
2022-09-06T15:34:23.183Z,63.60
2022-09-06T15:36:52.931Z,63.52
2022-09-06T15:39:20.381Z,63.43
2022-09-06T15:41:50.080Z,63.79
2022-09-06T15:44:21.316Z,63.87
2022-09-06T15:46:54.073Z,64.68
2022-09-06T15:49:28.577Z,64.50
2022-09-06T15:51:59.524Z,64.89
2022-09-06T15:54:46.779Z,64.66
2022-09-06T15:57:16.586Z,65.29
2022-09-06T15:59:44.337Z,65.60
2022-09-06T16:02:12.134Z,65.73
2022-09-06T16:04:39.606Z,65.65
2022-09-06T16:07:07.794Z,66.17
2022-09-06T16:09:35.174Z,66.53
2022-09-06T16:12:02.594Z,65.92
2022-09-06T16:14:29.993Z,65.38
2022-09-06T16:16:57.642Z,66.30
2022-09-06T16:19:26.142Z,65.34
2022-09-06T16:21:53.552Z,64.25
2022-09-06T16:24:21.497Z,63.92
2022-09-06T16:26:48.882Z,63.58
2022-09-06T16:29:19.197Z,64.29
2022-09-06T16:31:47.566Z,64.83
2022-09-06T16:34:15.687Z,65.34
2022-09-06T16:36:43.191Z,64.71
2022-09-06T16:39:11.096Z,65.49
2022-09-06T16:41:44.732Z,64.63
2022-09-06T16:44:18.047Z,64.50
2022-09-06T16:46:48.180Z,64.36
2022-09-06T16:49:17.465Z,64.61
2022-09-06T16:51:46.149Z,66.30
2022-09-06T16:54:15.503Z,66.84
2022-09-06T16:56:43.801Z,66.03
2022-09-06T16:59:12.840Z,64.02
2022-09-06T17:01:44.721Z,64.42
2022-09-06T17:04:15.416Z,65.02
2022-09-06T17:06:46.943Z,65.41
2022-09-06T17:09:19.186Z,65.58
2022-09-06T17:11:50.098Z,65.47
2022-09-06T17:14:18.003Z,65.23
2022-09-06T17:17:03.924Z,64.95
2022-09-06T17:19:43.257Z,64.85
2022-09-06T17:22:12.942Z,64.99
2022-09-06T17:24:41.553Z,65.66
2022-09-06T17:27:09.969Z,65.07
2022-09-06T17:29:37.434Z,66.04
2022-09-06T17:32:09.966Z,65.86
2022-09-06T17:34:39.179Z,65.90
2022-09-06T17:37:06.898Z,65.85
2022-09-06T17:39:34.675Z,66.78
2022-09-06T17:42:02.244Z,66.67
2022-09-06T17:44:29.746Z,67.36
2022-09-06T17:47:14.101Z,67.60
2022-09-06T17:52:46.229Z,67.53
2022-09-06T17:55:13.489Z,67.73
2022-09-06T17:57:40.986Z,67.35
2022-09-06T18:00:09.147Z,67.41
2022-09-06T18:02:36.521Z,67.48
2022-09-06T18:05:04.100Z,67.51
2022-09-06T18:07:31.573Z,67.74
2022-09-06T18:09:59.252Z,67.68
2022-09-06T18:12:29.690Z,67.23
2022-09-06T18:14:58.118Z,68.10
2022-09-06T18:17:26.998Z,68.14
2022-09-06T18:19:55.627Z,68.45
2022-09-06T18:22:24.462Z,68.61
2022-09-06T18:27:49.227Z,68.47
2022-09-06T18:42:00.459Z,68.41
2022-09-06T18:44:32.947Z,68.61
2022-09-06T18:47:07.169Z,68.60
2022-09-06T18:49:36.092Z,68.92
2022-09-06T18:52:06.755Z,69.14
2022-09-06T18:54:34.513Z,69.59
2022-09-06T18:57:01.759Z,69.47
2022-09-06T18:59:29.121Z,69.58
2022-09-06T19:01:56.491Z,69.95
2022-09-06T19:04:24.301Z,69.54
2022-09-06T19:06:51.604Z,69.82
2022-09-06T19:09:18.986Z,70.24
2022-09-06T19:11:49.306Z,70.44
2022-09-06T19:14:16.695Z,70.20
2022-09-06T19:16:45.351Z,70.01
2022-09-06T19:19:13.502Z,69.75
2022-09-06T19:21:42.234Z,69.92
2022-09-06T19:24:11.961Z,70.03
2022-09-06T19:38:21.313Z,70.47
2022-09-06T19:40:48.554Z,70.39
2022-09-06T19:43:15.803Z,70.62
2022-09-06T19:45:43.268Z,70.56
2022-09-06T19:48:10.570Z,70.85
2022-09-06T19:50:39.101Z,71.08
2022-09-06T19:53:07.385Z,71.00
2022-09-06T19:55:36.114Z,71.25
2022-09-06T19:58:08.697Z,71.70
2022-09-06T20:00:42.782Z,72.03
2022-09-06T20:03:09.976Z,71.74
2022-09-06T20:05:37.802Z,71.43
2022-09-06T20:08:05.249Z,71.61
2022-09-06T20:10:32.547Z,71.81
2022-09-06T20:12:59.854Z,71.66
2022-09-06T20:15:27.190Z,71.62
2022-09-06T20:17:54.537Z,71.54
2022-09-06T20:20:22.617Z,71.42
2022-09-06T20:22:49.937Z,71.25
2022-09-06T20:25:17.389Z,71.40
2022-09-06T20:27:44.822Z,71.54
2022-09-06T20:30:12.723Z,71.20
2022-09-06T20:32:39.947Z,71.08
2022-09-06T20:38:58.417Z,71.11
2022-09-06T20:41:27.024Z,71.34
2022-09-06T20:43:57.653Z,71.47
2022-09-06T20:46:28.243Z,71.47
2022-09-06T20:48:58.311Z,71.67
2022-09-06T20:51:26.213Z,71.57
2022-09-06T20:53:57.296Z,71.48
2022-09-06T20:56:31.519Z,71.51
2022-09-06T20:59:01.794Z,71.40
2022-09-06T21:01:34.745Z,71.54
2022-09-06T21:04:04.630Z,71.86
2022-09-06T21:06:35.788Z,71.55
2022-09-06T21:09:06.435Z,71.60
2022-09-06T21:14:24.296Z,71.73
2022-09-06T21:16:51.686Z,71.59
2022-09-06T21:19:19.204Z,71.35
2022-09-06T21:21:46.451Z,71.69
2022-09-06T21:24:13.910Z,71.56
2022-09-06T21:26:44.093Z,71.52
2022-09-06T21:29:11.780Z,71.94
2022-09-06T21:31:39.215Z,71.54
2022-09-06T21:34:17.344Z,71.88
2022-09-06T21:36:45.156Z,71.84
2022-09-06T21:39:13.488Z,71.71
2022-09-06T21:41:42.719Z,71.35
2022-09-06T21:44:10.958Z,71.44
2022-09-06T21:46:40.276Z,71.11
2022-09-06T21:49:11.738Z,70.95
2022-09-06T21:51:39.527Z,70.88
2022-09-06T21:54:07.145Z,71.00
2022-09-06T21:56:36.900Z,71.04
2022-09-06T21:59:05.678Z,70.87
2022-09-06T22:01:35.381Z,70.88
2022-09-06T22:04:03.930Z,71.21
2022-09-06T22:06:33.723Z,70.94
2022-09-06T22:09:07.948Z,71.28
2022-09-06T22:11:41.273Z,71.28
2022-09-06T22:14:12.140Z,71.25
2022-09-06T22:16:40.701Z,71.59
2022-09-06T22:19:09.692Z,72.36
2022-09-06T22:21:38.860Z,72.12
2022-09-06T22:24:10.680Z,71.68
2022-09-06T22:26:40.467Z,72.30
2022-09-06T22:29:10.831Z,72.01
2022-09-06T22:31:39.092Z,72.00
2022-09-06T22:34:07.503Z,71.95
2022-09-06T22:36:35.369Z,71.57
2022-09-06T22:39:02.773Z,71.21
2022-09-06T22:41:32.537Z,71.24
2022-09-06T22:44:01.718Z,70.96
2022-09-06T22:46:29.669Z,70.76
2022-09-06T22:48:57.253Z,70.98
2022-09-06T22:51:24.566Z,71.26
2022-09-06T22:53:51.867Z,71.26
2022-09-06T22:56:19.217Z,71.03
2022-09-06T22:58:46.560Z,71.25
2022-09-06T23:01:17.147Z,71.42
2022-09-06T23:03:45.455Z,71.18
2022-09-06T23:06:13.028Z,71.51
2022-09-06T23:08:41.675Z,71.46
2022-09-06T23:11:15.731Z,71.87
2022-09-06T23:13:44.087Z,71.89
2022-09-06T23:16:18.900Z,71.76
2022-09-06T23:18:47.321Z,71.99
2022-09-06T23:21:20.067Z,71.57
2022-09-06T23:23:49.426Z,71.54
2022-09-06T23:26:20.724Z,71.40
2022-09-06T23:28:57.476Z,71.17
2022-09-06T23:31:31.559Z,71.08
2022-09-06T23:34:01.562Z,71.19
2022-09-06T23:36:29.643Z,71.07
2022-09-06T23:38:57.429Z,71.23
2022-09-06T23:41:25.617Z,71.27
2022-09-06T23:43:59.407Z,71.50
2022-09-06T23:46:27.159Z,72.10
2022-09-06T23:48:54.461Z,72.11
2022-09-06T23:51:22.411Z,72.35
2022-09-06T23:53:49.651Z,72.46
2022-09-06T23:56:17.022Z,72.52
2022-09-06T23:58:44.299Z,72.44
